createdAt,value
2023-07-26T00:02:22.787Z,65.11
2023-07-26T00:04:50.697Z,64.67
2023-07-26T00:07:18.725Z,64.94
2023-07-26T00:09:46.689Z,64.46
2023-07-26T00:12:14.867Z,64.50
2023-07-26T00:14:42.906Z,64.96
2023-07-26T00:17:11.008Z,65.20
2023-07-26T00:19:39.117Z,65.08
2023-07-26T00:22:07.044Z,65.69
2023-07-26T00:24:35.124Z,65.29
2023-07-26T00:27:03.397Z,65.71
2023-07-26T00:29:31.907Z,66.30
2023-07-26T00:31:59.943Z,66.64
2023-07-26T00:34:27.855Z,66.86
2023-07-26T00:36:55.772Z,66.99
2023-07-26T00:39:23.687Z,66.40
2023-07-26T00:41:51.577Z,65.83
2023-07-26T00:44:19.574Z,66.65
2023-07-26T00:46:47.963Z,66.72
2023-07-26T00:49:17.102Z,66.61
2023-07-26T00:51:45.123Z,66.14
2023-07-26T00:54:13.032Z,67.64
2023-07-26T00:56:41.415Z,67.20
2023-07-26T00:59:09.672Z,67.48
2023-07-26T01:01:38.033Z,66.81
2023-07-26T01:04:06.092Z,67.41
2023-07-26T01:06:48.345Z,67.46
2023-07-26T01:09:47.852Z,67.83
2023-07-26T01:12:22.952Z,67.23
2023-07-26T01:14:59.302Z,67.83
2023-07-26T01:17:27.508Z,68.16
2023-07-26T01:19:55.964Z,68.62
2023-07-26T01:22:23.976Z,68.62
2023-07-26T01:24:51.971Z,67.65
2023-07-26T01:27:19.953Z,67.88
2023-07-26T01:29:52.019Z,67.95
2023-07-26T01:32:22.318Z,68.04
2023-07-26T01:34:50.973Z,67.77
2023-07-26T01:37:22.124Z,68.42
2023-07-26T01:39:50.970Z,68.26
2023-07-26T01:42:19.658Z,68.37
2023-07-26T01:44:47.716Z,68.57
2023-07-26T01:47:15.676Z,68.80
2023-07-26T01:49:43.701Z,68.61
2023-07-26T01:52:11.618Z,68.74
2023-07-26T01:54:39.547Z,68.85
2023-07-26T01:57:07.858Z,68.91
2023-07-26T01:59:35.835Z,68.60
2023-07-26T02:02:03.931Z,69.29
2023-07-26T02:04:32.007Z,69.16
2023-07-26T02:07:00.201Z,69.59
2023-07-26T02:09:28.102Z,69.51
2023-07-26T02:11:56.073Z,69.36
2023-07-26T02:14:24.083Z,69.31
2023-07-26T02:16:52.012Z,69.95
2023-07-26T02:19:19.976Z,69.21
2023-07-26T02:21:48.155Z,69.50
2023-07-26T02:24:16.453Z,69.75
2023-07-26T02:26:44.450Z,69.46
2023-07-26T02:29:12.366Z,70.28
2023-07-26T02:31:40.289Z,70.27
2023-07-26T02:34:08.501Z,70.53
2023-07-26T02:36:36.469Z,69.92
2023-07-26T02:39:05.361Z,70.07
2023-07-26T02:41:34.015Z,70.08
2023-07-26T02:44:02.333Z,69.96
2023-07-26T02:46:30.450Z,70.20
2023-07-26T02:48:58.627Z,69.87
2023-07-26T02:51:26.537Z,70.22
2023-07-26T02:53:54.710Z,70.11
2023-07-26T02:56:22.680Z,70.25
2023-07-26T02:58:50.778Z,70.75
2023-07-26T03:01:19.063Z,70.98
2023-07-26T03:03:47.173Z,70.39
2023-07-26T03:06:15.674Z,70.71
2023-07-26T03:08:43.598Z,70.58
2023-07-26T03:11:11.767Z,70.76
2023-07-26T03:13:40.197Z,71.06
2023-07-26T03:16:08.319Z,70.82
2023-07-26T03:18:36.340Z,70.74
2023-07-26T03:21:04.401Z,71.38
2023-07-26T03:23:32.575Z,72.04
2023-07-26T03:26:00.448Z,71.43
2023-07-26T03:28:29.334Z,71.09
2023-07-26T03:30:57.448Z,71.17
2023-07-26T03:33:26.241Z,71.07
2023-07-26T03:35:54.564Z,70.95
2023-07-26T03:38:22.731Z,71.79
2023-07-26T03:40:50.661Z,71.18
2023-07-26T03:43:18.675Z,71.38
2023-07-26T03:45:46.905Z,71.63
2023-07-26T03:48:15.157Z,71.82
2023-07-26T03:50:43.184Z,71.70
2023-07-26T03:53:11.156Z,71.67
2023-07-26T03:55:39.129Z,72.43
2023-07-26T03:58:07.102Z,72.13
2023-07-26T04:00:35.095Z,72.24
2023-07-26T04:03:03.146Z,72.05
2023-07-26T04:05:31.442Z,72.59
2023-07-26T04:07:59.522Z,72.31
2023-07-26T04:10:28.300Z,72.24
2023-07-26T04:12:56.491Z,72.46
2023-07-26T04:15:24.690Z,72.20
2023-07-26T04:17:52.851Z,72.63
2023-07-26T04:20:20.990Z,72.34
2023-07-26T04:22:49.062Z,72.51
2023-07-26T04:25:17.182Z,72.43
2023-07-26T04:27:45.208Z,72.28
2023-07-26T04:30:13.270Z,72.13
2023-07-26T04:32:41.373Z,72.06
2023-07-26T04:35:09.764Z,72.21
2023-07-26T04:37:38.096Z,72.21
2023-07-26T04:40:06.976Z,72.61
2023-07-26T04:42:35.990Z,72.36
2023-07-26T04:45:04.509Z,72.18
2023-07-26T04:47:34.810Z,72.06
2023-07-26T04:50:02.900Z,71.98
2023-07-26T04:52:30.831Z,72.34
2023-07-26T04:55:00.425Z,72.15
2023-07-26T04:57:28.400Z,72.00
2023-07-26T04:59:57.629Z,71.87
2023-07-26T05:02:25.896Z,71.75
2023-07-26T05:04:53.949Z,71.59
2023-07-26T05:07:21.914Z,71.63
2023-07-26T05:09:49.820Z,71.68
2023-07-26T05:12:17.949Z,71.74
2023-07-26T05:14:46.016Z,71.52
2023-07-26T05:17:14.107Z,71.53
2023-07-26T05:19:42.261Z,71.35
2023-07-26T05:22:12.318Z,71.24
2023-07-26T05:24:40.739Z,71.16
2023-07-26T05:27:08.727Z,70.99
2023-07-26T05:29:36.695Z,70.77
2023-07-26T05:32:04.887Z,70.53
2023-07-26T05:34:32.808Z,70.06
2023-07-26T05:37:00.667Z,69.94
2023-07-26T05:39:28.767Z,69.62
2023-07-26T05:41:56.732Z,69.54
2023-07-26T05:44:25.012Z,69.37
2023-07-26T05:46:53.030Z,69.34
2023-07-26T05:49:21.359Z,69.19
2023-07-26T05:51:49.424Z,68.32
2023-07-26T05:54:17.391Z,68.06
2023-07-26T05:56:45.363Z,67.67
2023-07-26T05:59:13.838Z,67.57
2023-07-26T06:01:41.827Z,67.32
2023-07-26T06:04:10.428Z,67.39
2023-07-26T06:06:38.484Z,67.34
2023-07-26T06:09:06.640Z,67.04
2023-07-26T06:11:43.749Z,66.90
2023-07-26T06:14:19.739Z,67.00
2023-07-26T06:16:47.705Z,66.81
2023-07-26T06:19:15.882Z,66.54
2023-07-26T06:21:44.006Z,66.59
2023-07-26T06:24:12.072Z,66.42
2023-07-26T06:26:39.969Z,66.34
2023-07-26T06:29:08.109Z,66.15
2023-07-26T06:31:36.485Z,65.85
2023-07-26T06:34:04.506Z,65.77
2023-07-26T06:36:32.524Z,65.60
2023-07-26T06:39:00.494Z,65.66
2023-07-26T06:41:28.723Z,65.42
2023-07-26T06:43:56.841Z,65.20
2023-07-26T06:46:25.009Z,64.89
2023-07-26T06:48:53.084Z,64.60
2023-07-26T06:51:21.121Z,64.61
2023-07-26T06:53:49.126Z,64.31
2023-07-26T06:56:17.144Z,63.82
2023-07-26T06:58:45.265Z,63.89
2023-07-26T07:01:18.752Z,64.05
2023-07-26T07:03:47.016Z,63.64
2023-07-26T07:06:17.154Z,62.98
2023-07-26T07:08:45.131Z,62.78
2023-07-26T07:11:13.091Z,62.78
2023-07-26T07:13:41.162Z,62.78
2023-07-26T07:16:09.196Z,62.84
2023-07-26T07:18:37.322Z,62.64
2023-07-26T07:21:05.523Z,62.74
2023-07-26T07:23:33.779Z,62.40
2023-07-26T07:26:01.777Z,62.46
2023-07-26T07:28:29.851Z,62.35
2023-07-26T07:30:57.810Z,62.44
2023-07-26T07:33:25.853Z,62.43
2023-07-26T07:35:53.901Z,62.28
2023-07-26T07:38:21.971Z,62.18
2023-07-26T07:40:50.372Z,62.18
2023-07-26T07:43:18.623Z,62.18
2023-07-26T07:45:46.626Z,62.20
2023-07-26T07:48:14.767Z,62.22
2023-07-26T07:50:42.838Z,62.00
2023-07-26T07:53:11.964Z,61.95
2023-07-26T07:55:41.326Z,61.80
2023-07-26T07:58:09.513Z,61.66
2023-07-26T08:00:37.778Z,61.81
2023-07-26T08:03:06.525Z,61.43
2023-07-26T08:05:34.998Z,61.42
2023-07-26T08:08:03.612Z,61.57
2023-07-26T08:10:31.905Z,61.86
2023-07-26T08:12:59.974Z,61.94
2023-07-26T08:15:34.062Z,62.07
2023-07-26T08:18:02.594Z,62.17
2023-07-26T08:20:35.505Z,62.54
2023-07-26T08:23:05.812Z,62.55
2023-07-26T08:25:34.765Z,62.65
2023-07-26T08:28:02.780Z,63.07
2023-07-26T08:30:31.314Z,63.16
2023-07-26T08:32:59.423Z,63.86
2023-07-26T08:35:27.522Z,63.59
2023-07-26T08:37:55.529Z,63.91
2023-07-26T08:40:24.984Z,63.90
2023-07-26T08:42:53.501Z,63.64
2023-07-26T08:45:22.182Z,64.25
2023-07-26T08:47:51.042Z,64.38
2023-07-26T08:50:19.471Z,64.28
2023-07-26T08:52:48.561Z,64.17
2023-07-26T08:55:17.755Z,64.41
2023-07-26T08:57:45.827Z,64.61
2023-07-26T09:00:14.509Z,64.50
2023-07-26T09:02:46.848Z,65.25
2023-07-26T09:05:15.159Z,65.00
2023-07-26T09:07:43.652Z,65.18
2023-07-26T09:10:11.710Z,65.17
2023-07-26T09:12:39.778Z,64.94
2023-07-26T09:15:09.660Z,64.97
2023-07-26T09:17:42.029Z,64.99
2023-07-26T09:20:26.361Z,64.82
2023-07-26T09:34:37.093Z,63.08
2023-07-26T09:37:05.329Z,62.85
2023-07-26T09:39:34.524Z,62.97
2023-07-26T09:42:08.356Z,62.96
2023-07-26T09:44:37.841Z,62.96
2023-07-26T09:47:07.096Z,63.01
2023-07-26T09:49:44.607Z,63.05
2023-07-26T09:52:14.821Z,63.18
2023-07-26T09:54:44.089Z,63.17
2023-07-26T09:57:14.205Z,63.16
2023-07-26T09:59:43.985Z,63.33
2023-07-26T10:02:13.527Z,63.31
2023-07-26T10:04:53.054Z,63.35
2023-07-26T10:07:24.040Z,63.36
2023-07-26T10:09:53.872Z,63.19
2023-07-26T10:12:27.274Z,63.12
2023-07-26T10:14:57.790Z,62.92
2023-07-26T10:17:27.952Z,62.80
2023-07-26T10:19:56.834Z,62.83
2023-07-26T10:22:25.282Z,63.03
2023-07-26T10:24:53.420Z,62.91
2023-07-26T10:27:23.605Z,63.29
2023-07-26T10:29:51.644Z,63.81
2023-07-26T10:32:19.714Z,63.59
2023-07-26T10:34:58.660Z,63.55
2023-07-26T10:37:35.189Z,63.78
2023-07-26T10:40:32.774Z,63.95
2023-07-26T10:43:17.758Z,64.27
2023-07-26T10:45:45.832Z,64.48
2023-07-26T10:48:37.976Z,64.33
2023-07-26T10:51:27.360Z,65.12
2023-07-26T10:53:55.486Z,65.26
2023-07-26T10:56:31.878Z,65.49
2023-07-26T10:59:06.296Z,65.60
2023-07-26T11:01:39.210Z,65.53
2023-07-26T11:04:21.564Z,65.96
2023-07-26T11:06:58.861Z,66.62
2023-07-26T11:09:29.561Z,66.03
2023-07-26T11:12:01.709Z,66.28
2023-07-26T11:14:34.631Z,66.70
2023-07-26T11:17:17.313Z,67.48
2023-07-26T11:19:47.389Z,67.32
2023-07-26T11:22:15.612Z,67.45
2023-07-26T11:24:43.662Z,67.79
2023-07-26T11:27:11.790Z,69.16
2023-07-26T11:29:39.847Z,69.51
2023-07-26T11:32:08.646Z,70.18
2023-07-26T11:34:36.752Z,71.22
2023-07-26T11:37:16.239Z,71.65
2023-07-26T11:39:44.310Z,71.95
2023-07-26T11:42:17.251Z,72.37
2023-07-26T11:44:45.288Z,72.39
2023-07-26T11:47:13.455Z,72.98
2023-07-26T11:49:41.554Z,73.25
2023-07-26T11:52:18.132Z,73.60
2023-07-26T11:54:57.216Z,74.20
2023-07-26T11:57:29.682Z,74.97
2023-07-26T12:00:05.842Z,74.42
2023-07-26T12:02:35.099Z,74.78
2023-07-26T12:05:17.469Z,75.03
2023-07-26T12:07:51.154Z,75.76
2023-07-26T12:10:48.103Z,75.13
2023-07-26T12:13:23.746Z,76.86
2023-07-26T12:16:01.768Z,76.20
2023-07-26T12:18:30.111Z,76.28
2023-07-26T12:21:14.463Z,76.50
2023-07-26T12:24:11.065Z,77.98
2023-07-26T12:26:45.746Z,78.12
2023-07-26T12:29:13.920Z,77.98
2023-07-26T12:31:42.318Z,77.95
2023-07-26T12:34:15.078Z,77.44
2023-07-26T12:36:43.437Z,77.74
2023-07-26T12:39:16.623Z,78.20
2023-07-26T12:41:46.578Z,78.12
2023-07-26T12:44:17.475Z,78.20
2023-07-26T12:47:22.856Z,78.33
2023-07-26T12:49:35.704Z,78.26
2023-07-26T12:52:03.782Z,78.66
2023-07-26T12:54:31.931Z,78.39
2023-07-26T12:56:59.910Z,78.22
2023-07-26T12:59:27.832Z,78.88
2023-07-26T13:01:55.859Z,78.46
2023-07-26T13:04:24.031Z,78.69
2023-07-26T13:06:52.199Z,78.82
2023-07-26T13:09:20.214Z,79.23
2023-07-26T13:11:48.994Z,79.10
2023-07-26T13:14:17.376Z,79.38
2023-07-26T13:16:46.366Z,79.19
2023-07-26T13:19:14.237Z,79.31
2023-07-26T13:21:42.306Z,79.42
2023-07-26T13:24:11.602Z,79.97
2023-07-26T13:26:39.534Z,80.24
2023-07-26T13:29:07.669Z,80.36
2023-07-26T13:31:36.295Z,80.58
2023-07-26T13:34:04.435Z,80.36
2023-07-26T13:36:32.815Z,79.96
2023-07-26T13:39:01.087Z,80.35
2023-07-26T13:41:29.139Z,80.70
2023-07-26T13:43:57.214Z,80.97
2023-07-26T13:46:35.275Z,80.92
2023-07-26T13:49:05.669Z,80.89
2023-07-26T13:51:34.387Z,80.86
2023-07-26T13:54:02.505Z,81.68
2023-07-26T13:56:30.985Z,81.28
2023-07-26T13:58:59.462Z,81.78
2023-07-26T14:01:27.914Z,81.47
2023-07-26T14:03:55.951Z,81.16
2023-07-26T14:06:27.282Z,81.08
2023-07-26T14:08:56.282Z,81.76
2023-07-26T14:11:25.142Z,81.30
2023-07-26T14:13:53.491Z,81.34
2023-07-26T14:16:23.353Z,81.28
2023-07-26T14:18:52.272Z,81.43
2023-07-26T14:21:20.450Z,81.21
2023-07-26T14:23:48.661Z,80.82
2023-07-26T14:26:16.683Z,80.97
2023-07-26T14:28:45.028Z,80.93
2023-07-26T14:31:13.577Z,81.03
2023-07-26T14:33:41.608Z,81.34
2023-07-26T14:36:09.783Z,81.43
2023-07-26T14:38:38.419Z,81.55
2023-07-26T14:41:06.697Z,81.86
2023-07-26T14:43:34.451Z,82.07
2023-07-26T14:46:02.527Z,81.79
2023-07-26T14:48:30.391Z,82.36
2023-07-26T14:50:58.261Z,83.13
2023-07-26T14:53:26.262Z,83.43
2023-07-26T14:55:54.107Z,83.61
2023-07-26T14:58:22.071Z,83.31
2023-07-26T15:00:49.829Z,83.71
2023-07-26T15:03:17.642Z,83.82
2023-07-26T15:05:46.308Z,84.12
2023-07-26T15:08:14.321Z,83.41
2023-07-26T15:10:42.470Z,83.49
2023-07-26T15:13:10.368Z,83.29
2023-07-26T15:15:43.190Z,83.84
2023-07-26T15:18:11.412Z,83.95
2023-07-26T15:20:40.062Z,83.37
2023-07-26T15:23:08.177Z,84.14
2023-07-26T15:25:36.158Z,84.06
2023-07-26T15:28:04.570Z,83.50
2023-07-26T15:30:36.093Z,83.66
2023-07-26T15:33:04.576Z,83.76
2023-07-26T15:35:37.710Z,83.56
2023-07-26T15:38:06.610Z,83.82
2023-07-26T15:43:22.925Z,83.72
2023-07-26T15:48:21.961Z,83.77
2023-07-26T15:53:22.320Z,83.78
2023-07-26T15:55:53.285Z,83.92
2023-07-26T15:58:27.791Z,84.00
2023-07-26T16:00:57.326Z,83.95
2023-07-26T16:10:57.765Z,84.14
2023-07-26T16:13:25.537Z,84.12
2023-07-26T16:18:27.570Z,84.12
2023-07-26T16:23:27.527Z,84.08
2023-07-26T16:25:55.260Z,83.85
2023-07-26T16:28:23.391Z,84.16
2023-07-26T16:30:51.285Z,83.62
2023-07-26T16:33:19.034Z,83.63
2023-07-26T16:35:46.805Z,83.77
2023-07-26T16:38:14.527Z,83.75
2023-07-26T16:40:42.636Z,83.83
2023-07-26T16:43:10.308Z,83.67
2023-07-26T16:45:38.485Z,84.17
2023-07-26T16:48:06.275Z,83.79
2023-07-26T16:50:34.800Z,83.76
2023-07-26T16:53:02.747Z,84.01
2023-07-26T16:55:30.555Z,84.26
2023-07-26T16:57:58.194Z,83.85
2023-07-26T17:00:26.097Z,84.14
2023-07-26T17:02:53.955Z,84.01
2023-07-26T17:05:22.928Z,83.97
2023-07-26T17:07:50.644Z,83.67
2023-07-26T17:10:18.377Z,84.34
2023-07-26T17:12:46.119Z,84.46
2023-07-26T17:15:13.951Z,84.20
2023-07-26T17:17:41.792Z,83.99
2023-07-26T17:20:10.009Z,84.33
2023-07-26T17:22:37.966Z,84.55
2023-07-26T17:25:07.999Z,84.81
2023-07-26T17:27:35.740Z,84.29
2023-07-26T17:30:04.211Z,84.52
2023-07-26T17:32:31.969Z,84.36
2023-07-26T17:35:00.369Z,84.15
2023-07-26T17:37:29.160Z,84.03
2023-07-26T17:39:57.638Z,84.15
2023-07-26T17:42:25.468Z,84.47
2023-07-26T17:44:55.470Z,84.44
2023-07-26T17:47:23.485Z,84.50
2023-07-26T17:49:52.596Z,83.92
2023-07-26T17:52:20.541Z,83.95
2023-07-26T17:54:49.064Z,83.88
2023-07-26T17:57:25.195Z,83.84
2023-07-26T17:59:53.362Z,83.85
2023-07-26T18:02:24.750Z,84.27
2023-07-26T18:04:53.237Z,84.05
2023-07-26T18:07:21.106Z,84.01
2023-07-26T18:09:48.931Z,84.33
2023-07-26T18:12:17.050Z,84.22
2023-07-26T18:14:45.311Z,84.61
2023-07-26T18:17:14.238Z,84.79
2023-07-26T18:19:42.396Z,84.33
2023-07-26T18:22:11.820Z,84.43
2023-07-26T18:24:41.771Z,84.32
2023-07-26T18:27:10.052Z,84.26
2023-07-26T18:29:38.800Z,84.60
2023-07-26T18:32:07.474Z,84.61
2023-07-26T18:34:36.036Z,84.92
2023-07-26T18:37:03.840Z,84.58
2023-07-26T18:39:31.550Z,84.82
2023-07-26T18:41:59.236Z,85.06
2023-07-26T18:44:27.099Z,85.05
2023-07-26T18:46:56.166Z,84.97
2023-07-26T18:49:24.506Z,85.49
2023-07-26T18:51:52.285Z,85.11
2023-07-26T18:54:20.021Z,84.73
2023-07-26T18:56:47.857Z,84.97
2023-07-26T18:59:15.566Z,85.87
2023-07-26T19:01:43.406Z,85.70
2023-07-26T19:04:11.141Z,85.27
2023-07-26T19:06:38.839Z,85.03
2023-07-26T19:09:06.555Z,85.12
2023-07-26T19:11:34.383Z,85.45
2023-07-26T19:14:02.129Z,85.21
2023-07-26T19:16:29.951Z,85.08
2023-07-26T19:18:57.835Z,85.29
2023-07-26T19:21:25.507Z,85.27
2023-07-26T19:23:53.864Z,85.51
2023-07-26T19:26:23.270Z,85.36
2023-07-26T19:28:51.441Z,85.50
2023-07-26T19:31:19.354Z,85.65
2023-07-26T19:33:47.650Z,85.71
2023-07-26T19:36:19.091Z,85.65
2023-07-26T19:38:48.086Z,86.66
2023-07-26T19:41:19.947Z,86.57
2023-07-26T19:43:51.287Z,86.39
2023-07-26T19:46:19.550Z,86.18
2023-07-26T19:48:49.655Z,86.36
2023-07-26T19:51:19.558Z,86.42
2023-07-26T19:53:48.008Z,86.28
2023-07-26T19:56:19.365Z,86.15
2023-07-26T19:58:48.374Z,86.62
2023-07-26T20:01:16.956Z,86.52
2023-07-26T20:03:45.137Z,86.52
2023-07-26T20:06:20.632Z,86.34
2023-07-26T20:08:50.514Z,86.22
2023-07-26T20:11:19.922Z,86.54
2023-07-26T20:13:49.782Z,86.66
2023-07-26T20:16:45.751Z,87.01
2023-07-26T20:19:17.992Z,86.75
2023-07-26T20:21:47.092Z,87.14
2023-07-26T20:24:17.198Z,86.73
2023-07-26T20:26:48.338Z,86.87
2023-07-26T20:29:16.325Z,86.83
2023-07-26T20:31:44.520Z,86.91
2023-07-26T20:34:12.158Z,86.66
2023-07-26T20:36:40.412Z,86.74
2023-07-26T20:39:08.093Z,86.46
2023-07-26T20:41:35.761Z,86.57
2023-07-26T20:44:03.490Z,86.56
2023-07-26T20:46:31.202Z,86.76
2023-07-26T20:48:59.027Z,86.63
2023-07-26T20:51:26.742Z,86.43
2023-07-26T20:53:54.381Z,86.73
2023-07-26T20:56:22.117Z,86.64
2023-07-26T20:58:49.789Z,86.55
2023-07-26T21:01:17.755Z,86.90
2023-07-26T21:03:45.557Z,87.12
2023-07-26T21:06:14.463Z,87.14
2023-07-26T21:08:43.987Z,87.16
2023-07-26T21:11:11.891Z,86.70
2023-07-26T21:13:39.670Z,86.86
2023-07-26T21:16:07.422Z,86.83
2023-07-26T21:18:35.172Z,86.84
2023-07-26T21:21:02.899Z,86.77
2023-07-26T21:23:30.997Z,86.69
2023-07-26T21:25:59.586Z,86.89
2023-07-26T21:28:28.992Z,87.19
2023-07-26T21:30:56.748Z,87.31
2023-07-26T21:33:24.980Z,86.88
2023-07-26T21:35:58.219Z,86.95
2023-07-26T21:38:26.719Z,86.76
2023-07-26T21:40:55.827Z,86.76
2023-07-26T21:43:23.850Z,87.13
2023-07-26T21:45:54.700Z,87.66
2023-07-26T21:48:23.072Z,87.10
2023-07-26T21:50:51.141Z,87.46
2023-07-26T21:53:20.025Z,87.59
2023-07-26T21:55:48.516Z,87.36
2023-07-26T21:58:29.477Z,87.84
2023-07-26T22:00:58.802Z,87.83
2023-07-26T22:03:26.784Z,87.83
2023-07-26T22:05:54.928Z,87.50
2023-07-26T22:08:22.850Z,87.43
2023-07-26T22:10:50.872Z,87.46
2023-07-26T22:13:18.601Z,87.40
2023-07-26T22:15:47.967Z,88.01
2023-07-26T22:18:15.926Z,87.86
2023-07-26T22:21:01.838Z,88.10
2023-07-26T22:23:32.615Z,87.39
2023-07-26T22:26:12.942Z,87.35
2023-07-26T22:28:42.776Z,87.52
2023-07-26T22:31:10.769Z,88.20
2023-07-26T22:33:38.890Z,88.70
2023-07-26T22:36:07.023Z,87.74
2023-07-26T22:38:35.108Z,87.29
2023-07-26T22:41:06.600Z,87.91
2023-07-26T22:43:34.507Z,88.05
2023-07-26T22:46:02.936Z,88.56
2023-07-26T22:48:30.684Z,88.80
2023-07-26T22:50:58.466Z,87.68
2023-07-26T22:53:26.310Z,87.86
2023-07-26T22:55:53.961Z,87.85
2023-07-26T22:58:21.875Z,87.30
2023-07-26T23:00:49.661Z,87.32
2023-07-26T23:03:17.435Z,87.81
2023-07-26T23:05:45.250Z,88.15
2023-07-26T23:08:12.937Z,87.73
2023-07-26T23:10:40.585Z,87.99
2023-07-26T23:13:08.253Z,87.95
2023-07-26T23:15:36.401Z,88.19
2023-07-26T23:18:04.182Z,88.09
2023-07-26T23:20:31.935Z,88.20
2023-07-26T23:22:59.660Z,88.35
2023-07-26T23:25:27.368Z,88.41
2023-07-26T23:27:55.120Z,88.39
2023-07-26T23:30:22.876Z,88.63
2023-07-26T23:32:51.816Z,88.53
2023-07-26T23:35:19.722Z,88.61
2023-07-26T23:37:47.488Z,88.74
2023-07-26T23:40:15.226Z,88.39
2023-07-26T23:42:42.904Z,87.97
2023-07-26T23:45:12.164Z,87.70
2023-07-26T23:47:39.871Z,87.63
2023-07-26T23:50:07.910Z,87.97
2023-07-26T23:52:35.574Z,88.32
2023-07-26T23:55:04.161Z,87.81
2023-07-26T23:57:31.954Z,88.65
2023-07-26T23:59:59.985Z,88.19
